sensor_id;sensor_type;location;lat;lon;timestamp;temperature;humidity
13223;DHT22;6676;45.192;5.722;2023-06-14T00:01:09;19.10;99.90
13223;DHT22;6676;45.192;5.722;2023-06-14T00:04:03;19.10;99.90
13223;DHT22;6676;45.192;5.722;2023-06-14T00:06:55;19.10;99.90
13223;DHT22;6676;45.192;5.722;2023-06-14T00:09:47;19.00;99.90
13223;DHT22;6676;45.192;5.722;2023-06-14T00:12:39;19.00;99.90
13223;DHT22;6676;45.192;5.722;2023-06-14T00:15:31;19.10;99.90
13223;DHT22;6676;45.192;5.722;2023-06-14T00:18:22;19.00;99.90
13223;DHT22;6676;45.192;5.722;2023-06-14T00:21:14;19.00;99.90
13223;DHT22;6676;45.192;5.722;2023-06-14T00:24:07;19.00;99.90
13223;DHT22;6676;45.192;5.722;2023-06-14T00:26:58;18.90;99.90
13223;DHT22;6676;45.192;5.722;2023-06-14T00:29:50;19.00;99.90
13223;DHT22;6676;45.192;5.722;2023-06-14T00:35:21;18.90;99.90
13223;DHT22;6676;45.192;5.722;2023-06-14T00:38:12;18.90;99.90
13223;DHT22;6676;45.192;5.722;2023-06-14T00:41:03;18.90;99.90
13223;DHT22;6676;45.192;5.722;2023-06-14T00:43:54;18.90;99.90
13223;DHT22;6676;45.192;5.722;2023-06-14T00:49:26;18.80;99.90
13223;DHT22;6676;45.192;5.722;2023-06-14T00:52:17;18.90;99.90
13223;DHT22;6676;45.192;5.722;2023-06-14T00:55:09;19.00;99.90
13223;DHT22;6676;45.192;5.722;2023-06-14T00:58:01;19.00;99.90
13223;DHT22;6676;45.192;5.722;2023-06-14T01:00:53;18.90;99.90
13223;DHT22;6676;45.192;5.722;2023-06-14T01:09:23;18.90;99.90
13223;DHT22;6676;45.192;5.722;2023-06-14T01:14:55;18.90;99.90
13223;DHT22;6676;45.192;5.722;2023-06-14T01:20:29;18.90;99.90
13223;DHT22;6676;45.192;5.722;2023-06-14T01:23:22;18.90;99.90
13223;DHT22;6676;45.192;5.722;2023-06-14T01:26:14;18.80;99.90
13223;DHT22;6676;45.192;5.722;2023-06-14T01:29:06;18.80;99.90
13223;DHT22;6676;45.192;5.722;2023-06-14T01:31:58;18.80;99.90
13223;DHT22;6676;45.192;5.722;2023-06-14T01:34:52;18.80;99.90
13223;DHT22;6676;45.192;5.722;2023-06-14T01:37:44;18.70;99.90
13223;DHT22;6676;45.192;5.722;2023-06-14T01:40:37;18.70;99.90
13223;DHT22;6676;45.192;5.722;2023-06-14T01:43:31;18.70;99.90
13223;DHT22;6676;45.192;5.722;2023-06-14T01:46:22;18.70;99.90
13223;DHT22;6676;45.192;5.722;2023-06-14T01:49:15;18.70;99.90
13223;DHT22;6676;45.192;5.722;2023-06-14T01:54:45;18.80;99.90
13223;DHT22;6676;45.192;5.722;2023-06-14T02:00:22;18.80;99.90
13223;DHT22;6676;45.192;5.722;2023-06-14T02:03:16;18.80;99.90
13223;DHT22;6676;45.192;5.722;2023-06-14T02:06:09;18.80;99.90
13223;DHT22;6676;45.192;5.722;2023-06-14T02:09:01;18.70;99.90
13223;DHT22;6676;45.192;5.722;2023-06-14T02:11:53;18.60;99.90
13223;DHT22;6676;45.192;5.722;2023-06-14T02:14:44;18.70;99.90
13223;DHT22;6676;45.192;5.722;2023-06-14T02:17:35;18.70;99.90
13223;DHT22;6676;45.192;5.722;2023-06-14T02:20:28;18.70;99.90
13223;DHT22;6676;45.192;5.722;2023-06-14T02:23:19;18.70;99.90
13223;DHT22;6676;45.192;5.722;2023-06-14T02:26:11;18.70;99.90
13223;DHT22;6676;45.192;5.722;2023-06-14T02:29:02;18.70;99.90
13223;DHT22;6676;45.192;5.722;2023-06-14T02:34:35;18.80;99.90
13223;DHT22;6676;45.192;5.722;2023-06-14T02:40:12;18.80;99.90
13223;DHT22;6676;45.192;5.722;2023-06-14T02:43:04;19.00;99.90
13223;DHT22;6676;45.192;5.722;2023-06-14T02:45:55;18.90;99.90
13223;DHT22;6676;45.192;5.722;2023-06-14T02:48:46;18.90;99.90
13223;DHT22;6676;45.192;5.722;2023-06-14T02:51:37;18.80;99.90
13223;DHT22;6676;45.192;5.722;2023-06-14T02:54:29;18.80;99.90
13223;DHT22;6676;45.192;5.722;2023-06-14T02:57:21;18.80;99.90
13223;DHT22;6676;45.192;5.722;2023-06-14T03:00:15;18.80;99.90
13223;DHT22;6676;45.192;5.722;2023-06-14T03:05:48;18.80;99.90
13223;DHT22;6676;45.192;5.722;2023-06-14T03:08:42;18.80;99.90
13223;DHT22;6676;45.192;5.722;2023-06-14T03:14:15;18.70;99.90
13223;DHT22;6676;45.192;5.722;2023-06-14T03:19:48;18.80;99.90
13223;DHT22;6676;45.192;5.722;2023-06-14T03:25:18;18.90;99.90
13223;DHT22;6676;45.192;5.722;2023-06-14T03:28:12;18.90;99.90
13223;DHT22;6676;45.192;5.722;2023-06-14T03:31:03;18.90;99.90
13223;DHT22;6676;45.192;5.722;2023-06-14T03:33:55;18.90;99.90
13223;DHT22;6676;45.192;5.722;2023-06-14T03:36:46;18.70;99.90
13223;DHT22;6676;45.192;5.722;2023-06-14T03:39:37;18.60;99.90
13223;DHT22;6676;45.192;5.722;2023-06-14T03:45:14;18.60;99.90
13223;DHT22;6676;45.192;5.722;2023-06-14T03:48:06;18.60;99.90
13223;DHT22;6676;45.192;5.722;2023-06-14T03:51:18;18.60;99.90
13223;DHT22;6676;45.192;5.722;2023-06-14T03:54:09;18.50;99.90
13223;DHT22;6676;45.192;5.722;2023-06-14T03:59:43;18.60;99.90
13223;DHT22;6676;45.192;5.722;2023-06-14T04:05:24;18.70;99.90
13223;DHT22;6676;45.192;5.722;2023-06-14T04:08:17;18.70;99.90
13223;DHT22;6676;45.192;5.722;2023-06-14T04:11:09;18.70;99.90
13223;DHT22;6676;45.192;5.722;2023-06-14T04:14:03;18.80;99.90
13223;DHT22;6676;45.192;5.722;2023-06-14T04:16:55;18.80;99.90
13223;DHT22;6676;45.192;5.722;2023-06-14T04:19:47;18.70;99.90
13223;DHT22;6676;45.192;5.722;2023-06-14T04:25:16;18.80;99.90
13223;DHT22;6676;45.192;5.722;2023-06-14T04:28:11;18.80;99.90
13223;DHT22;6676;45.192;5.722;2023-06-14T04:31:04;18.80;99.90
13223;DHT22;6676;45.192;5.722;2023-06-14T04:33:58;18.90;99.90
13223;DHT22;6676;45.192;5.722;2023-06-14T04:39:29;18.90;99.90
13223;DHT22;6676;45.192;5.722;2023-06-14T04:42:22;18.90;99.90
13223;DHT22;6676;45.192;5.722;2023-06-14T04:45:15;18.90;99.90
13223;DHT22;6676;45.192;5.722;2023-06-14T04:48:07;18.90;99.90
13223;DHT22;6676;45.192;5.722;2023-06-14T04:51:00;18.90;99.90
13223;DHT22;6676;45.192;5.722;2023-06-14T04:53:53;18.90;99.90
13223;DHT22;6676;45.192;5.722;2023-06-14T04:56:46;18.90;99.90
13223;DHT22;6676;45.192;5.722;2023-06-14T04:59:38;18.90;99.90
13223;DHT22;6676;45.192;5.722;2023-06-14T05:02:29;19.10;99.90
13223;DHT22;6676;45.192;5.722;2023-06-14T05:05:21;19.10;99.90
13223;DHT22;6676;45.192;5.722;2023-06-14T05:08:14;19.00;99.90
13223;DHT22;6676;45.192;5.722;2023-06-14T05:13:47;18.90;99.90
13223;DHT22;6676;45.192;5.722;2023-06-14T05:19:18;18.90;99.90
13223;DHT22;6676;45.192;5.722;2023-06-14T05:24:49;18.90;99.90
13223;DHT22;6676;45.192;5.722;2023-06-14T05:30:20;19.00;99.90
13223;DHT22;6676;45.192;5.722;2023-06-14T05:33:12;19.00;99.90
13223;DHT22;6676;45.192;5.722;2023-06-14T05:36:04;19.10;99.90
13223;DHT22;6676;45.192;5.722;2023-06-14T05:38:57;19.10;99.90
13223;DHT22;6676;45.192;5.722;2023-06-14T05:44:30;19.00;99.90
13223;DHT22;6676;45.192;5.722;2023-06-14T05:47:22;19.00;99.90
13223;DHT22;6676;45.192;5.722;2023-06-14T05:50:13;19.10;99.90
13223;DHT22;6676;45.192;5.722;2023-06-14T05:55:43;19.20;99.90
13223;DHT22;6676;45.192;5.722;2023-06-14T05:58:34;19.20;99.90
13223;DHT22;6676;45.192;5.722;2023-06-14T06:01:25;19.20;99.90
13223;DHT22;6676;45.192;5.722;2023-06-14T06:04:17;19.30;99.90
13223;DHT22;6676;45.192;5.722;2023-06-14T06:07:09;19.30;99.90
13223;DHT22;6676;45.192;5.722;2023-06-14T06:10:00;19.30;99.90
13223;DHT22;6676;45.192;5.722;2023-06-14T06:12:51;19.30;99.90
13223;DHT22;6676;45.192;5.722;2023-06-14T06:15:44;19.40;99.90
13223;DHT22;6676;45.192;5.722;2023-06-14T06:18:36;19.40;99.90
13223;DHT22;6676;45.192;5.722;2023-06-14T06:21:27;19.40;99.90
13223;DHT22;6676;45.192;5.722;2023-06-14T06:29:41;19.40;99.90
13223;DHT22;6676;45.192;5.722;2023-06-14T06:32:33;19.40;99.90
13223;DHT22;6676;45.192;5.722;2023-06-14T06:35:24;19.50;99.90
13223;DHT22;6676;45.192;5.722;2023-06-14T06:40:56;19.80;99.90
13223;DHT22;6676;45.192;5.722;2023-06-14T06:43:47;19.80;99.90
13223;DHT22;6676;45.192;5.722;2023-06-14T06:49:16;20.00;99.90
13223;DHT22;6676;45.192;5.722;2023-06-14T06:52:10;20.20;99.90
13223;DHT22;6676;45.192;5.722;2023-06-14T06:55:03;20.40;99.90
13223;DHT22;6676;45.192;5.722;2023-06-14T06:58:03;20.50;99.90
13223;DHT22;6676;45.192;5.722;2023-06-14T07:00:55;20.50;99.90
13223;DHT22;6676;45.192;5.722;2023-06-14T07:03:55;20.50;99.90
13223;DHT22;6676;45.192;5.722;2023-06-14T07:09:25;20.50;99.90
13223;DHT22;6676;45.192;5.722;2023-06-14T07:12:18;20.60;99.90
13223;DHT22;6676;45.192;5.722;2023-06-14T07:17:55;20.60;99.90
13223;DHT22;6676;45.192;5.722;2023-06-14T07:20:49;20.70;99.90
13223;DHT22;6676;45.192;5.722;2023-06-14T07:23:42;20.80;99.90
13223;DHT22;6676;45.192;5.722;2023-06-14T07:26:33;20.70;99.90
13223;DHT22;6676;45.192;5.722;2023-06-14T07:32:30;20.80;99.90
13223;DHT22;6676;45.192;5.722;2023-06-14T07:35:21;20.80;99.90
13223;DHT22;6676;45.192;5.722;2023-06-14T07:38:13;20.80;99.90
13223;DHT22;6676;45.192;5.722;2023-06-14T07:41:04;20.80;99.90
13223;DHT22;6676;45.192;5.722;2023-06-14T07:49:16;20.80;99.90
13223;DHT22;6676;45.192;5.722;2023-06-14T07:54:49;20.90;99.90
13223;DHT22;6676;45.192;5.722;2023-06-14T07:57:40;20.80;99.90
13223;DHT22;6676;45.192;5.722;2023-06-14T08:00:32;20.80;99.90
13223;DHT22;6676;45.192;5.722;2023-06-14T08:03:32;20.70;99.90
13223;DHT22;6676;45.192;5.722;2023-06-14T08:06:23;20.70;99.90
13223;DHT22;6676;45.192;5.722;2023-06-14T08:11:55;20.90;99.90
13223;DHT22;6676;45.192;5.722;2023-06-14T08:14:46;21.00;99.90
13223;DHT22;6676;45.192;5.722;2023-06-14T08:20:20;21.10;99.90
13223;DHT22;6676;45.192;5.722;2023-06-14T08:23:11;20.90;99.90
13223;DHT22;6676;45.192;5.722;2023-06-14T08:26:06;21.00;99.90
13223;DHT22;6676;45.192;5.722;2023-06-14T08:34:22;21.20;99.90
13223;DHT22;6676;45.192;5.722;2023-06-14T08:37:13;21.20;99.90
13223;DHT22;6676;45.192;5.722;2023-06-14T08:40:12;21.30;99.90
13223;DHT22;6676;45.192;5.722;2023-06-14T08:43:02;21.40;99.90
13223;DHT22;6676;45.192;5.722;2023-06-14T08:48:32;21.40;99.90
13223;DHT22;6676;45.192;5.722;2023-06-14T08:51:25;21.60;99.90
13223;DHT22;6676;45.192;5.722;2023-06-14T08:54:19;21.60;99.90
13223;DHT22;6676;45.192;5.722;2023-06-14T08:57:12;21.70;99.90
13223;DHT22;6676;45.192;5.722;2023-06-14T09:00:07;21.80;99.90
13223;DHT22;6676;45.192;5.722;2023-06-14T09:05:41;22.10;99.90
13223;DHT22;6676;45.192;5.722;2023-06-14T09:08:32;22.10;99.90
13223;DHT22;6676;45.192;5.722;2023-06-14T09:11:24;22.10;99.90
13223;DHT22;6676;45.192;5.722;2023-06-14T09:14:17;22.20;99.90
13223;DHT22;6676;45.192;5.722;2023-06-14T09:19:54;22.50;99.90
13223;DHT22;6676;45.192;5.722;2023-06-14T09:22:46;22.40;99.90
13223;DHT22;6676;45.192;5.722;2023-06-14T09:25:45;22.50;99.90
13223;DHT22;6676;45.192;5.722;2023-06-14T09:28:37;22.30;99.90
13223;DHT22;6676;45.192;5.722;2023-06-14T09:31:30;22.40;99.90
13223;DHT22;6676;45.192;5.722;2023-06-14T09:34:22;22.60;99.90
13223;DHT22;6676;45.192;5.722;2023-06-14T09:37:13;22.60;99.90
13223;DHT22;6676;45.192;5.722;2023-06-14T09:40:08;22.70;99.90
13223;DHT22;6676;45.192;5.722;2023-06-14T09:42:59;22.80;99.90
13223;DHT22;6676;45.192;5.722;2023-06-14T09:45:52;22.90;99.90
13223;DHT22;6676;45.192;5.722;2023-06-14T09:51:31;23.00;99.90
13223;DHT22;6676;45.192;5.722;2023-06-14T09:54:23;23.10;99.90
13223;DHT22;6676;45.192;5.722;2023-06-14T09:57:16;23.10;99.90
13223;DHT22;6676;45.192;5.722;2023-06-14T10:00:14;23.20;99.90
13223;DHT22;6676;45.192;5.722;2023-06-14T10:05:52;23.50;99.90
13223;DHT22;6676;45.192;5.722;2023-06-14T10:08:45;23.50;99.90
13223;DHT22;6676;45.192;5.722;2023-06-14T10:11:37;23.60;99.90
13223;DHT22;6676;45.192;5.722;2023-06-14T10:14:30;23.70;99.90
13223;DHT22;6676;45.192;5.722;2023-06-14T10:20:18;23.80;99.90
13223;DHT22;6676;45.192;5.722;2023-06-14T10:23:13;23.90;99.90
13223;DHT22;6676;45.192;5.722;2023-06-14T10:26:05;24.00;99.90
13223;DHT22;6676;45.192;5.722;2023-06-14T10:28:58;24.10;99.90
13223;DHT22;6676;45.192;5.722;2023-06-14T10:34:30;24.30;99.90
13223;DHT22;6676;45.192;5.722;2023-06-14T10:37:21;24.30;99.90
13223;DHT22;6676;45.192;5.722;2023-06-14T10:40:31;24.20;99.90
13223;DHT22;6676;45.192;5.722;2023-06-14T10:43:23;24.20;99.90
13223;DHT22;6676;45.192;5.722;2023-06-14T10:46:16;24.40;99.90
13223;DHT22;6676;45.192;5.722;2023-06-14T10:49:08;24.60;99.90
13223;DHT22;6676;45.192;5.722;2023-06-14T10:51:59;24.80;99.90
13223;DHT22;6676;45.192;5.722;2023-06-14T10:55:08;24.90;99.90
13223;DHT22;6676;45.192;5.722;2023-06-14T11:00:41;24.90;99.90
13223;DHT22;6676;45.192;5.722;2023-06-14T11:03:50;25.10;99.90
13223;DHT22;6676;45.192;5.722;2023-06-14T11:06:50;25.10;99.90
13223;DHT22;6676;45.192;5.722;2023-06-14T11:09:52;25.20;99.90
13223;DHT22;6676;45.192;5.722;2023-06-14T11:12:46;25.50;99.90
13223;DHT22;6676;45.192;5.722;2023-06-14T11:15:39;25.70;99.90
13223;DHT22;6676;45.192;5.722;2023-06-14T11:18:31;25.40;99.90
13223;DHT22;6676;45.192;5.722;2023-06-14T11:21:23;25.30;99.90
13223;DHT22;6676;45.192;5.722;2023-06-14T11:24:17;25.30;99.90
13223;DHT22;6676;45.192;5.722;2023-06-14T11:27:09;25.20;99.90
13223;DHT22;6676;45.192;5.722;2023-06-14T11:30:01;25.10;99.90
13223;DHT22;6676;45.192;5.722;2023-06-14T11:32:54;25.20;99.90
13223;DHT22;6676;45.192;5.722;2023-06-14T11:35:47;25.50;99.90
13223;DHT22;6676;45.192;5.722;2023-06-14T11:38:38;25.50;99.90
13223;DHT22;6676;45.192;5.722;2023-06-14T11:41:41;25.50;99.90
13223;DHT22;6676;45.192;5.722;2023-06-14T11:44:33;25.50;99.90
13223;DHT22;6676;45.192;5.722;2023-06-14T11:47:25;25.70;99.90
13223;DHT22;6676;45.192;5.722;2023-06-14T11:50:17;25.80;99.90
13223;DHT22;6676;45.192;5.722;2023-06-14T11:53:11;26.00;99.90
13223;DHT22;6676;45.192;5.722;2023-06-14T11:56:03;25.90;99.90
13223;DHT22;6676;45.192;5.722;2023-06-14T11:58:55;25.90;99.90
13223;DHT22;6676;45.192;5.722;2023-06-14T12:01:48;25.90;99.90
13223;DHT22;6676;45.192;5.722;2023-06-14T12:04:42;26.10;99.90
13223;DHT22;6676;45.192;5.722;2023-06-14T12:07:34;26.10;99.90
13223;DHT22;6676;45.192;5.722;2023-06-14T12:10:25;26.10;99.90
13223;DHT22;6676;45.192;5.722;2023-06-14T12:13:18;26.20;99.90
13223;DHT22;6676;45.192;5.722;2023-06-14T12:16:10;26.20;99.90
13223;DHT22;6676;45.192;5.722;2023-06-14T12:19:08;26.30;99.90
13223;DHT22;6676;45.192;5.722;2023-06-14T12:22:01;26.30;99.90
13223;DHT22;6676;45.192;5.722;2023-06-14T12:27:34;26.20;99.90
13223;DHT22;6676;45.192;5.722;2023-06-14T12:30:26;26.30;99.90
13223;DHT22;6676;45.192;5.722;2023-06-14T12:33:17;26.40;99.90
13223;DHT22;6676;45.192;5.722;2023-06-14T12:36:10;26.60;99.90
13223;DHT22;6676;45.192;5.722;2023-06-14T12:39:02;26.80;99.90
13223;DHT22;6676;45.192;5.722;2023-06-14T12:41:54;26.90;99.90
13223;DHT22;6676;45.192;5.722;2023-06-14T12:44:45;26.80;97.90
13223;DHT22;6676;45.192;5.722;2023-06-14T12:47:37;26.80;97.20
13223;DHT22;6676;45.192;5.722;2023-06-14T12:50:28;27.00;97.30
13223;DHT22;6676;45.192;5.722;2023-06-14T12:53:20;27.10;96.40
13223;DHT22;6676;45.192;5.722;2023-06-14T12:56:12;27.20;96.80
13223;DHT22;6676;45.192;5.722;2023-06-14T12:59:03;27.20;96.70
13223;DHT22;6676;45.192;5.722;2023-06-14T13:01:56;27.10;95.00
13223;DHT22;6676;45.192;5.722;2023-06-14T13:04:48;27.20;94.60
13223;DHT22;6676;45.192;5.722;2023-06-14T13:07:39;27.20;95.30
13223;DHT22;6676;45.192;5.722;2023-06-14T13:10:31;27.40;99.80
13223;DHT22;6676;45.192;5.722;2023-06-14T13:13:24;27.40;97.50
13223;DHT22;6676;45.192;5.722;2023-06-14T13:16:15;27.50;93.10
13223;DHT22;6676;45.192;5.722;2023-06-14T13:19:07;27.40;94.00
13223;DHT22;6676;45.192;5.722;2023-06-14T13:21:59;27.50;94.60
13223;DHT22;6676;45.192;5.722;2023-06-14T13:24:50;27.50;95.70
13223;DHT22;6676;45.192;5.722;2023-06-14T13:27:42;27.50;96.00
13223;DHT22;6676;45.192;5.722;2023-06-14T13:30:34;27.50;96.40
13223;DHT22;6676;45.192;5.722;2023-06-14T13:33:26;27.80;99.90
13223;DHT22;6676;45.192;5.722;2023-06-14T13:36:18;27.80;99.90
13223;DHT22;6676;45.192;5.722;2023-06-14T13:39:09;28.00;97.00
13223;DHT22;6676;45.192;5.722;2023-06-14T13:42:01;27.90;96.80
13223;DHT22;6676;45.192;5.722;2023-06-14T13:44:53;28.20;97.30
13223;DHT22;6676;45.192;5.722;2023-06-14T13:47:45;28.40;97.00
13223;DHT22;6676;45.192;5.722;2023-06-14T13:50:38;28.50;97.50
13223;DHT22;6676;45.192;5.722;2023-06-14T13:53:30;28.60;96.80
13223;DHT22;6676;45.192;5.722;2023-06-14T13:56:22;28.80;97.50
13223;DHT22;6676;45.192;5.722;2023-06-14T13:59:14;28.90;97.50
13223;DHT22;6676;45.192;5.722;2023-06-14T14:02:07;28.80;98.90
13223;DHT22;6676;45.192;5.722;2023-06-14T14:04:58;28.70;99.00
13223;DHT22;6676;45.192;5.722;2023-06-14T14:07:50;28.90;98.80
13223;DHT22;6676;45.192;5.722;2023-06-14T14:10:42;29.00;98.50
13223;DHT22;6676;45.192;5.722;2023-06-14T14:13:34;29.10;99.60
13223;DHT22;6676;45.192;5.722;2023-06-14T14:16:27;29.30;99.90
13223;DHT22;6676;45.192;5.722;2023-06-14T14:19:18;29.10;99.90
13223;DHT22;6676;45.192;5.722;2023-06-14T14:22:10;28.50;99.90
13223;DHT22;6676;45.192;5.722;2023-06-14T14:25:02;28.80;99.90
13223;DHT22;6676;45.192;5.722;2023-06-14T14:27:53;28.90;99.90
13223;DHT22;6676;45.192;5.722;2023-06-14T14:30:45;28.80;99.90
13223;DHT22;6676;45.192;5.722;2023-06-14T14:33:37;29.30;99.90
13223;DHT22;6676;45.192;5.722;2023-06-14T14:36:29;29.20;99.90
13223;DHT22;6676;45.192;5.722;2023-06-14T14:39:20;29.60;99.90
13223;DHT22;6676;45.192;5.722;2023-06-14T14:42:12;29.90;98.90
13223;DHT22;6676;45.192;5.722;2023-06-14T14:45:05;29.80;98.40
13223;DHT22;6676;45.192;5.722;2023-06-14T14:47:56;30.00;97.90
13223;DHT22;6676;45.192;5.722;2023-06-14T14:50:48;30.00;98.00
13223;DHT22;6676;45.192;5.722;2023-06-14T14:53:40;30.20;97.30
13223;DHT22;6676;45.192;5.722;2023-06-14T14:56:31;29.30;97.80
13223;DHT22;6676;45.192;5.722;2023-06-14T14:59:24;29.50;96.80
13223;DHT22;6676;45.192;5.722;2023-06-14T15:02:16;30.00;95.60
13223;DHT22;6676;45.192;5.722;2023-06-14T15:05:08;29.90;94.70
13223;DHT22;6676;45.192;5.722;2023-06-14T15:08:00;29.80;94.60
13223;DHT22;6676;45.192;5.722;2023-06-14T15:10:51;30.00;93.80
13223;DHT22;6676;45.192;5.722;2023-06-14T15:13:43;29.90;93.50
13223;DHT22;6676;45.192;5.722;2023-06-14T15:16:35;30.30;92.50
13223;DHT22;6676;45.192;5.722;2023-06-14T15:19:26;30.60;92.20
13223;DHT22;6676;45.192;5.722;2023-06-14T15:22:17;30.90;91.60
13223;DHT22;6676;45.192;5.722;2023-06-14T15:25:09;30.90;91.00
13223;DHT22;6676;45.192;5.722;2023-06-14T15:28:01;31.00;89.50
13223;DHT22;6676;45.192;5.722;2023-06-14T15:30:55;31.30;86.60
13223;DHT22;6676;45.192;5.722;2023-06-14T15:33:46;31.00;85.70
13223;DHT22;6676;45.192;5.722;2023-06-14T15:36:38;31.30;83.70
13223;DHT22;6676;45.192;5.722;2023-06-14T15:39:30;31.50;84.60
13223;DHT22;6676;45.192;5.722;2023-06-14T15:42:22;31.50;83.00
13223;DHT22;6676;45.192;5.722;2023-06-14T15:45:13;31.60;81.20
13223;DHT22;6676;45.192;5.722;2023-06-14T15:48:06;31.10;81.20
13223;DHT22;6676;45.192;5.722;2023-06-14T15:50:58;31.30;80.70
13223;DHT22;6676;45.192;5.722;2023-06-14T15:53:49;31.10;80.90
13223;DHT22;6676;45.192;5.722;2023-06-14T15:56:42;31.30;79.30
13223;DHT22;6676;45.192;5.722;2023-06-14T15:59:33;31.00;78.80
13223;DHT22;6676;45.192;5.722;2023-06-14T16:02:25;31.30;78.50
13223;DHT22;6676;45.192;5.722;2023-06-14T16:05:17;31.50;79.00
13223;DHT22;6676;45.192;5.722;2023-06-14T16:08:08;31.70;77.60
13223;DHT22;6676;45.192;5.722;2023-06-14T16:11:00;31.80;75.80
13223;DHT22;6676;45.192;5.722;2023-06-14T16:13:52;31.10;75.80
13223;DHT22;6676;45.192;5.722;2023-06-14T16:16:47;31.60;73.60
13223;DHT22;6676;45.192;5.722;2023-06-14T16:19:40;31.70;74.70
13223;DHT22;6676;45.192;5.722;2023-06-14T16:22:31;31.70;71.80
13223;DHT22;6676;45.192;5.722;2023-06-14T16:25:23;31.20;72.90
13223;DHT22;6676;45.192;5.722;2023-06-14T16:28:15;31.10;69.90
13223;DHT22;6676;45.192;5.722;2023-06-14T16:33:47;31.00;68.40
13223;DHT22;6676;45.192;5.722;2023-06-14T16:36:42;31.40;67.20
13223;DHT22;6676;45.192;5.722;2023-06-14T16:39:33;31.40;66.10
13223;DHT22;6676;45.192;5.722;2023-06-14T16:42:25;31.60;66.10
13223;DHT22;6676;45.192;5.722;2023-06-14T16:45:16;31.80;65.60
13223;DHT22;6676;45.192;5.722;2023-06-14T16:48:08;31.80;63.30
13223;DHT22;6676;45.192;5.722;2023-06-14T16:51:00;31.40;63.90
13223;DHT22;6676;45.192;5.722;2023-06-14T16:53:52;31.40;62.40
13223;DHT22;6676;45.192;5.722;2023-06-14T16:56:45;31.50;61.20
13223;DHT22;6676;45.192;5.722;2023-06-14T16:59:38;31.70;60.90
13223;DHT22;6676;45.192;5.722;2023-06-14T17:02:29;31.70;61.10
13223;DHT22;6676;45.192;5.722;2023-06-14T17:05:21;31.50;60.00
13223;DHT22;6676;45.192;5.722;2023-06-14T17:08:12;31.50;59.00
13223;DHT22;6676;45.192;5.722;2023-06-14T17:11:03;31.50;58.50
13223;DHT22;6676;45.192;5.722;2023-06-14T17:14:00;31.20;57.80
13223;DHT22;6676;45.192;5.722;2023-06-14T17:17:04;31.60;56.80
13223;DHT22;6676;45.192;5.722;2023-06-14T17:19:56;31.30;55.10
13223;DHT22;6676;45.192;5.722;2023-06-14T17:25:32;30.70;55.50
13223;DHT22;6676;45.192;5.722;2023-06-14T17:28:24;30.70;55.20
13223;DHT22;6676;45.192;5.722;2023-06-14T17:31:15;30.40;54.70
13223;DHT22;6676;45.192;5.722;2023-06-14T17:36:45;29.70;55.00
13223;DHT22;6676;45.192;5.722;2023-06-14T17:42:18;28.90;55.90
13223;DHT22;6676;45.192;5.722;2023-06-14T17:45:12;28.40;56.80
13223;DHT22;6676;45.192;5.722;2023-06-14T17:48:03;28.30;57.20
13223;DHT22;6676;45.192;5.722;2023-06-14T17:50:55;28.10;57.50
13223;DHT22;6676;45.192;5.722;2023-06-14T17:53:47;27.90;57.60
13223;DHT22;6676;45.192;5.722;2023-06-14T17:56:41;27.50;57.50
13223;DHT22;6676;45.192;5.722;2023-06-14T17:59:34;27.10;57.20
13223;DHT22;6676;45.192;5.722;2023-06-14T18:02:26;27.40;57.70
13223;DHT22;6676;45.192;5.722;2023-06-14T18:07:58;28.00;58.00
13223;DHT22;6676;45.192;5.722;2023-06-14T18:10:49;27.90;57.60
13223;DHT22;6676;45.192;5.722;2023-06-14T18:13:40;27.30;58.60
13223;DHT22;6676;45.192;5.722;2023-06-14T18:16:31;26.80;60.50
13223;DHT22;6676;45.192;5.722;2023-06-14T18:19:23;26.40;62.20
13223;DHT22;6676;45.192;5.722;2023-06-14T18:24:56;26.30;62.70
13223;DHT22;6676;45.192;5.722;2023-06-14T18:27:48;26.20;62.70
13223;DHT22;6676;45.192;5.722;2023-06-14T18:33:20;26.00;64.40
13223;DHT22;6676;45.192;5.722;2023-06-14T18:36:11;25.90;65.40
13223;DHT22;6676;45.192;5.722;2023-06-14T18:39:02;25.80;66.20
13223;DHT22;6676;45.192;5.722;2023-06-14T18:41:54;25.70;67.00
13223;DHT22;6676;45.192;5.722;2023-06-14T18:44:46;25.60;68.60
13223;DHT22;6676;45.192;5.722;2023-06-14T18:47:37;25.40;69.20
13223;DHT22;6676;45.192;5.722;2023-06-14T18:53:08;25.10;71.40
13223;DHT22;6676;45.192;5.722;2023-06-14T18:58:38;25.00;72.30
13223;DHT22;6676;45.192;5.722;2023-06-14T19:04:10;24.80;73.80
13223;DHT22;6676;45.192;5.722;2023-06-14T19:07:02;24.70;74.00
13223;DHT22;6676;45.192;5.722;2023-06-14T19:09:57;24.80;73.10
13223;DHT22;6676;45.192;5.722;2023-06-14T19:12:49;24.60;74.50
13223;DHT22;6676;45.192;5.722;2023-06-14T19:15:40;24.50;74.00
13223;DHT22;6676;45.192;5.722;2023-06-14T19:18:31;24.40;75.60
13223;DHT22;6676;45.192;5.722;2023-06-14T19:21:23;24.30;75.80
13223;DHT22;6676;45.192;5.722;2023-06-14T19:24:14;24.20;75.50
13223;DHT22;6676;45.192;5.722;2023-06-14T19:29:47;24.00;76.20
13223;DHT22;6676;45.192;5.722;2023-06-14T19:32:38;24.00;77.40
13223;DHT22;6676;45.192;5.722;2023-06-14T19:35:29;23.90;77.10
13223;DHT22;6676;45.192;5.722;2023-06-14T19:38:21;23.90;78.20
13223;DHT22;6676;45.192;5.722;2023-06-14T19:41:13;23.80;78.10
13223;DHT22;6676;45.192;5.722;2023-06-14T19:44:05;23.80;78.50
13223;DHT22;6676;45.192;5.722;2023-06-14T19:46:56;23.60;78.90
13223;DHT22;6676;45.192;5.722;2023-06-14T19:49:48;23.60;79.70
13223;DHT22;6676;45.192;5.722;2023-06-14T19:52:39;23.50;79.60
13223;DHT22;6676;45.192;5.722;2023-06-14T19:55:30;23.50;79.90
13223;DHT22;6676;45.192;5.722;2023-06-14T19:58:23;23.50;79.40
13223;DHT22;6676;45.192;5.722;2023-06-14T20:01:15;23.50;79.20
13223;DHT22;6676;45.192;5.722;2023-06-14T20:04:06;23.40;79.20
13223;DHT22;6676;45.192;5.722;2023-06-14T20:06:58;23.70;77.90
13223;DHT22;6676;45.192;5.722;2023-06-14T20:09:49;23.90;75.80
13223;DHT22;6676;45.192;5.722;2023-06-14T20:12:41;24.00;77.10
13223;DHT22;6676;45.192;5.722;2023-06-14T20:18:11;24.10;73.70
13223;DHT22;6676;45.192;5.722;2023-06-14T20:21:04;24.10;75.00
13223;DHT22;6676;45.192;5.722;2023-06-14T20:23:55;23.90;77.00
13223;DHT22;6676;45.192;5.722;2023-06-14T20:26:47;24.10;72.40
13223;DHT22;6676;45.192;5.722;2023-06-14T20:29:39;24.00;76.50
13223;DHT22;6676;45.192;5.722;2023-06-14T20:32:31;23.80;75.50
13223;DHT22;6676;45.192;5.722;2023-06-14T20:35:23;23.70;76.10
13223;DHT22;6676;45.192;5.722;2023-06-14T20:38:15;23.60;76.00
13223;DHT22;6676;45.192;5.722;2023-06-14T20:43:47;23.30;77.80
13223;DHT22;6676;45.192;5.722;2023-06-14T20:46:38;23.30;76.60
13223;DHT22;6676;45.192;5.722;2023-06-14T20:49:31;23.50;76.60
13223;DHT22;6676;45.192;5.722;2023-06-14T20:52:23;23.40;77.60
13223;DHT22;6676;45.192;5.722;2023-06-14T20:57:55;23.00;80.60
13223;DHT22;6676;45.192;5.722;2023-06-14T21:00:48;22.90;80.40
13223;DHT22;6676;45.192;5.722;2023-06-14T21:03:40;22.70;81.20
13223;DHT22;6676;45.192;5.722;2023-06-14T21:09:12;22.70;81.50
13223;DHT22;6676;45.192;5.722;2023-06-14T21:12:04;22.60;81.60
13223;DHT22;6676;45.192;5.722;2023-06-14T21:14:56;22.50;82.30